Time;durP1;ratioP1;P1;durP2;ratioP2;P2;SDS_P1;SDS_P2;PMS_P1;PMS_P2;Temp;Humidity;BMP_temperature;BMP_pressure;BME280_temperature;BME280_humidity;BME280_pressure;Samples;Min_cycle;Max_cycle;Signal;HPM_P1;HPM_P2
2023/06/13 00:02:02;;;;;;;9.50;5.40;;;;;;;16.05;100.00;100568.04;106984;1255;71418;-80
2023/06/13 00:04:32;;;;;;;10.60;5.00;;;;;;;16.05;100.00;100566.33;107089;1258;61896;-82
2023/06/13 00:07:00;;;;;;;8.40;4.80;;;;;;;16.04;100.00;100561.45;105976;1263;61771;-86
2023/06/13 00:09:28;;;;;;;9.60;5.20;;;;;;;16.03;100.00;100558.91;106000;1261;72865;-84
2023/06/13 00:11:55;;;;;;;8.50;4.90;;;;;;;16.03;100.00;100561.38;105646;1260;63966;-84
2023/06/13 00:14:23;;;;;;;8.20;4.70;;;;;;;16.02;100.00;100564.29;105670;1258;72132;-87
2023/06/13 00:16:52;;;;;;;7.90;5.10;;;;;;;16.02;100.00;100567.25;105770;1261;61907;-84
2023/06/13 00:19:19;;;;;;;9.40;4.60;;;;;;;16.04;100.00;100565.88;105681;1259;60299;-83
2023/06/13 00:21:46;;;;;;;8.80;4.70;;;;;;;16.04;100.00;100570.14;105727;1259;73070;-83
2023/06/13 00:24:13;;;;;;;10.20;5.70;;;;;;;16.03;100.00;100573.70;105665;1259;63753;-84
2023/06/13 00:26:40;;;;;;;12.10;4.10;;;;;;;16.04;100.00;100573.50;105781;1257;72601;-83
2023/06/13 00:29:07;;;;;;;8.90;4.60;;;;;;;16.01;100.00;100571.38;105690;1259;62084;-84
2023/06/13 00:31:34;;;;;;;14.80;4.20;;;;;;;15.99;100.00;100565.05;105646;1256;60189;-87
2023/06/13 00:34:02;;;;;;;8.60;5.60;;;;;;;15.97;100.00;100556.09;105699;1259;73123;-85
2023/06/13 00:36:28;;;;;;;12.10;5.40;;;;;;;15.97;100.00;100555.56;105623;1259;63895;-82
2023/06/13 00:38:57;;;;;;;8.30;4.80;;;;;;;15.96;100.00;100553.98;105709;1254;71362;-83
2023/06/13 00:41:24;;;;;;;7.30;5.40;;;;;;;15.94;100.00;100557.67;105685;1259;61853;-87
2023/06/13 00:43:51;;;;;;;11.00;4.10;;;;;;;15.92;100.00;100558.95;105695;1260;59635;-84
2023/06/13 00:46:32;;;;;;;11.30;4.80;;;;;;;15.90;100.00;100560.18;105691;1258;73013;-83
2023/06/13 00:48:59;;;;;;;8.40;4.20;;;;;;;15.88;100.00;100563.31;105657;1260;63824;-86
2023/06/13 00:51:27;;;;;;;5.10;4.10;;;;;;;15.85;100.00;100560.89;105750;1259;71229;-83
2023/06/13 00:53:55;;;;;;;7.10;4.30;;;;;;;15.84;100.00;100558.00;105677;1259;60642;-87
2023/06/13 00:56:24;;;;;;;6.60;3.60;;;;;;;15.83;100.00;100561.63;105737;1265;60348;-84
2023/06/13 00:58:54;;;;;;;6.20;3.60;;;;;;;15.81;100.00;100566.35;105764;1261;73011;-87
2023/06/13 01:01:22;;;;;;;6.30;3.30;;;;;;;15.80;100.00;100565.02;105660;1254;62785;-88
2023/06/13 01:03:50;;;;;;;7.80;3.40;;;;;;;15.78;100.00;100565.73;105597;1259;72427;-86
2023/06/13 01:06:18;;;;;;;4.00;2.90;;;;;;;15.76;100.00;100569.95;105701;1254;61989;-86
2023/06/13 01:08:45;;;;;;;5.20;2.90;;;;;;;15.75;100.00;100565.80;105682;1259;59625;-86
2023/06/13 01:11:15;;;;;;;10.50;3.30;;;;;;;15.74;100.00;100567.48;105617;1259;71862;-85
2023/06/13 01:14:01;;;;;;;5.70;2.30;;;;;;;15.74;100.00;100565.21;108400;1258;62759;-84
2023/06/13 01:16:35;;;;;;;3.10;2.70;;;;;;;15.73;100.00;100561.75;105953;1254;72686;-83
2023/06/13 01:19:03;;;;;;;4.60;3.30;;;;;;;15.72;100.00;100565.67;105950;1259;62044;-84
2023/06/13 01:21:30;;;;;;;4.70;2.70;;;;;;;15.73;100.00;100564.42;106002;1253;60164;-85
2023/06/13 01:24:00;;;;;;;6.00;3.80;;;;;;;15.74;100.00;100562.54;105815;1257;73117;-83
2023/06/13 01:26:54;;;;;;;11.20;5.70;;;;;;;15.75;100.00;100562.98;105881;1257;62510;-83
2023/06/13 01:29:22;;;;;;;9.80;4.70;;;;;;;15.77;100.00;100565.86;108985;1251;71453;-81
2023/06/13 01:31:52;;;;;;;14.10;4.40;;;;;;;15.79;100.00;100569.55;106661;1251;61898;-84
2023/06/13 01:34:19;;;;;;;7.10;3.90;;;;;;;15.80;100.00;100572.66;106136;1251;60339;-85
2023/06/13 01:36:47;;;;;;;6.00;4.30;;;;;;;15.80;100.00;100569.64;105714;1251;70924;-83
2023/06/13 01:39:14;;;;;;;3.40;2.60;;;;;;;15.80;100.00;100576.13;105938;1257;61757;-84
2023/06/13 01:41:41;;;;;;;2.50;2.30;;;;;;;15.79;100.00;100574.17;105967;1251;72720;-86
2023/06/13 01:44:08;;;;;;;3.00;2.30;;;;;;;15.74;100.00;100573.79;105982;1254;60886;-85
2023/06/13 01:47:07;;;;;;;3.10;2.20;;;;;;;15.70;100.00;100573.27;105800;1251;59699;-85
2023/06/13 01:49:39;;;;;;;6.10;2.80;;;;;;;15.65;100.00;100578.09;105327;1261;72230;-85
2023/06/13 01:52:09;;;;;;;3.40;2.40;;;;;;;15.63;100.00;100579.82;105457;1264;63699;-86
2023/06/13 01:54:41;;;;;;;4.80;2.50;;;;;;;15.63;100.00;100581.21;105294;1260;72706;-85
2023/06/13 01:57:08;;;;;;;4.50;2.10;;;;;;;15.61;100.00;100581.40;105430;1261;61720;-87
2023/06/13 01:59:35;;;;;;;3.20;2.70;;;;;;;15.59;100.00;100582.96;105260;1265;59694;-87
2023/06/13 02:02:02;;;;;;;6.80;3.60;;;;;;;15.58;100.00;100578.42;105413;1263;72280;-85
2023/06/13 02:04:38;;;;;;;8.10;5.20;;;;;;;15.60;100.00;100580.91;105339;1263;63880;-84
2023/06/13 02:07:06;;;;;;;6.40;4.80;;;;;;;15.61;100.00;100580.83;105368;1264;72695;-87
2023/06/13 02:09:32;;;;;;;9.00;5.60;;;;;;;15.61;100.00;100582.27;105445;1259;61952;-87
2023/06/13 02:11:59;;;;;;;7.60;6.50;;;;;;;15.60;100.00;100584.09;105313;1261;60165;-85
2023/06/13 02:14:26;;;;;;;8.50;6.30;;;;;;;15.59;100.00;100581.58;105281;1260;73003;-85
2023/06/13 02:16:53;;;;;;;12.80;6.30;;;;;;;15.56;100.00;100582.46;105240;1263;63942;-84
2023/06/13 02:19:21;;;;;;;10.00;6.10;;;;;;;15.53;100.00;100577.63;105293;1263;72574;-84
2023/06/13 02:21:47;;;;;;;9.50;6.30;;;;;;;15.51;100.00;100582.90;105404;1260;61747;-86
2023/06/13 02:24:18;;;;;;;8.80;6.60;;;;;;;15.50;100.00;100584.90;105417;1260;60240;-84
2023/06/13 02:26:45;;;;;;;7.70;6.70;;;;;;;15.49;100.00;100587.27;105623;1261;73144;-85
2023/06/13 02:29:12;;;;;;;6.50;5.10;;;;;;;15.50;100.00;100586.98;105876;1257;62736;-85
2023/06/13 02:31:41;;;;;;;9.90;3.90;;;;;;;15.53;100.00;100589.25;105986;1251;72559;-86
2023/06/13 02:34:09;;;;;;;4.00;3.40;;;;;;;15.54;100.00;100588.30;105852;1251;62018;-83
2023/06/13 02:36:38;;;;;;;6.10;3.10;;;;;;;15.54;100.00;100593.56;105834;1251;60300;-84
2023/06/13 02:39:07;;;;;;;5.30;3.10;;;;;;;15.56;100.00;100592.20;105933;1257;71841;-84
2023/06/13 02:41:34;;;;;;;3.20;2.90;;;;;;;15.57;100.00;100595.11;106508;1251;63960;-83
2023/06/13 02:44:01;;;;;;;5.00;3.20;;;;;;;15.59;100.00;100595.85;106340;1257;71401;-83
2023/06/13 02:46:27;;;;;;;2.40;2.20;;;;;;;15.59;100.00;100596.38;105921;1254;60487;-86
2023/06/13 02:48:55;;;;;;;3.80;2.70;;;;;;;15.60;100.00;100598.21;105922;1257;59540;-85
2023/06/13 02:51:24;;;;;;;5.00;2.80;;;;;;;15.61;100.00;100601.48;105947;1256;73007;-84
2023/06/13 02:53:51;;;;;;;3.80;2.60;;;;;;;15.62;100.00;100602.66;105886;1257;63990;-83
2023/06/13 02:56:18;;;;;;;3.80;2.50;;;;;;;15.63;100.00;100601.83;105855;1251;72633;-85
2023/06/13 02:58:48;;;;;;;4.40;3.10;;;;;;;15.66;100.00;100604.40;105980;1257;60749;-85
2023/06/13 03:01:15;;;;;;;4.90;2.10;;;;;;;15.69;100.00;100607.16;105803;1251;59608;-85
2023/06/13 03:03:47;;;;;;;2.50;2.20;;;;;;;15.71;100.00;100604.19;105922;1251;72938;-86
2023/06/13 03:06:17;;;;;;;3.50;2.10;;;;;;;15.73;100.00;100605.64;105918;1255;63820;-84
2023/06/13 03:08:44;;;;;;;4.30;2.40;;;;;;;15.73;100.00;100598.59;105868;1254;71402;-85
2023/06/13 03:11:12;;;;;;;5.70;2.10;;;;;;;15.72;100.00;100601.63;105955;1257;61888;-84
2023/06/13 03:13:40;;;;;;;3.30;2.70;;;;;;;15.72;100.00;100601.83;105886;1257;60097;-85
2023/06/13 03:16:08;;;;;;;7.10;2.60;;;;;;;15.72;100.00;100602.33;105857;1251;71813;-84
2023/06/13 03:18:36;;;;;;;4.60;3.10;;;;;;;15.71;100.00;100605.39;105768;1257;63838;-84
2023/06/13 03:21:04;;;;;;;10.10;9.10;;;;;;;15.70;100.00;100604.30;105993;1256;72478;-84
2023/06/13 03:23:33;;;;;;;6.40;3.20;;;;;;;15.68;100.00;100603.30;105706;1257;62007;-87
2023/06/13 03:26:01;;;;;;;8.20;2.90;;;;;;;15.68;100.00;100606.70;106070;1251;60269;-84
2023/06/13 03:28:29;;;;;;;6.20;3.30;;;;;;;15.67;100.00;100603.65;106026;1255;73081;-85
2023/06/13 03:31:00;;;;;;;5.10;2.80;;;;;;;15.65;100.00;100605.04;105811;1251;63898;-84
2023/06/13 03:33:27;;;;;;;11.30;2.40;;;;;;;15.65;100.00;100606.95;105971;1251;72694;-83
2023/06/13 03:35:55;;;;;;;3.30;2.60;;;;;;;15.66;100.00;100602.95;105847;1256;63128;-84
2023/06/13 03:38:27;;;;;;;6.90;2.80;;;;;;;15.69;100.00;100605.95;107993;1251;59244;-83
2023/06/13 03:40:54;;;;;;;5.80;2.80;;;;;;;15.72;100.00;100604.67;107032;1251;73096;-82
2023/06/13 03:43:23;;;;;;;2.70;2.40;;;;;;;15.76;100.00;100608.56;106428;1256;62862;-85
2023/06/13 03:45:49;;;;;;;2.70;2.30;;;;;;;15.79;100.00;100610.25;106081;1251;72662;-86
2023/06/13 03:48:16;;;;;;;5.30;3.60;;;;;;;15.82;100.00;100612.34;105940;1251;62555;-84
2023/06/13 03:50:43;;;;;;;5.20;2.50;;;;;;;15.85;100.00;100611.30;105891;1251;61965;-85
2023/06/13 03:53:10;;;;;;;4.20;2.20;;;;;;;15.88;100.00;100611.64;105922;1251;72327;-85
2023/06/13 03:55:38;;;;;;;3.20;2.50;;;;;;;15.91;100.00;100614.51;106077;1256;63817;-84
2023/06/13 03:58:04;;;;;;;5.10;2.20;;;;;;;15.95;100.00;100612.41;106185;1251;72615;-88
2023/06/13 04:00:32;;;;;;;5.90;2.40;;;;;;;16.01;100.00;100617.83;106186;1251;61926;-84
2023/06/13 04:03:02;;;;;;;5.90;2.50;;;;;;;16.04;100.00;100611.20;105893;1257;60406;-83
2023/06/13 04:05:31;;;;;;;6.20;2.30;;;;;;;16.11;100.00;100610.09;107254;1251;72565;-85
2023/06/13 04:07:59;;;;;;;3.30;2.80;;;;;;;16.17;100.00;100613.09;108362;1251;63242;-83
2023/06/13 04:10:26;;;;;;;4.30;2.70;;;;;;;16.25;100.00;100615.29;108443;1251;70071;-83
2023/06/13 04:12:53;;;;;;;3.80;2.00;;;;;;;16.34;100.00;100614.17;108986;1255;61109;-85
2023/06/13 04:15:21;;;;;;;2.40;2.00;;;;;;;16.45;100.00;100616.61;108240;1251;60326;-84
2023/06/13 04:17:48;;;;;;;4.90;2.10;;;;;;;16.56;100.00;100617.02;106543;1257;73709;-83
2023/06/13 04:20:16;;;;;;;4.70;2.20;;;;;;;16.64;100.00;100623.21;106406;1251;63977;-87
2023/06/13 04:22:44;;;;;;;7.30;2.90;;;;;;;16.70;100.00;100625.39;106155;1251;71710;-85
2023/06/13 04:25:12;;;;;;;5.30;2.70;;;;;;;16.73;100.00;100624.07;106266;1254;60735;-86
2023/06/13 04:27:39;;;;;;;3.60;2.30;;;;;;;16.76;100.00;100625.78;106312;1251;60521;-84
2023/06/13 04:30:08;;;;;;;7.50;3.00;;;;;;;16.77;100.00;100619.69;108039;1252;74032;-84
2023/06/13 04:32:37;;;;;;;4.30;2.60;;;;;;;16.77;100.00;100622.65;106731;1251;63638;-84
2023/06/13 04:35:04;;;;;;;3.50;2.10;;;;;;;16.83;100.00;100624.00;106601;1251;70338;-84
2023/06/13 04:37:31;;;;;;;2.80;2.40;;;;;;;16.87;100.00;100621.47;106226;1251;61871;-86
2023/06/13 04:39:58;;;;;;;2.40;2.20;;;;;;;16.90;100.00;100620.48;105963;1252;60348;-85
2023/06/13 04:42:28;;;;;;;4.60;2.20;;;;;;;16.96;100.00;100622.66;106017;1255;72387;-86
2023/06/13 04:44:57;;;;;;;7.20;2.40;;;;;;;17.01;100.00;100626.79;106853;1251;62714;-84
2023/06/13 04:47:24;;;;;;;2.80;1.80;;;;;;;17.07;100.00;100625.05;106514;1251;72827;-86
2023/06/13 04:49:59;;;;;;;4.30;2.00;;;;;;;17.14;100.00;100625.52;106524;1256;60676;-86
2023/06/13 04:52:27;;;;;;;3.50;2.10;;;;;;;17.19;100.00;100624.52;105945;1256;61264;-86
2023/06/13 04:54:54;;;;;;;4.80;3.10;;;;;;;17.26;100.00;100628.21;105896;1251;73876;-85
2023/06/13 04:57:21;;;;;;;4.80;2.40;;;;;;;17.32;100.00;100631.67;105984;1255;63055;-86
2023/06/13 04:59:48;;;;;;;6.20;2.60;;;;;;;17.39;100.00;100632.33;106290;1256;71426;-81
2023/06/13 05:02:18;;;;;;;4.90;2.40;;;;;;;17.46;100.00;100635.77;109441;1251;60510;-85
2023/06/13 05:04:47;;;;;;;4.50;2.20;;;;;;;17.60;100.00;100636.98;109385;1251;59641;-84
2023/06/13 05:07:17;;;;;;;4.40;2.80;;;;;;;17.89;100.00;100634.10;109512;1251;72375;-84
2023/06/13 05:09:45;;;;;;;4.60;2.10;;;;;;;18.38;100.00;100633.61;109686;1251;63641;-84
2023/06/13 05:12:12;;;;;;;4.10;2.40;;;;;;;19.01;100.00;100634.65;109415;1251;73248;-86
2023/06/13 05:14:42;;;;;;;7.50;2.40;;;;;;;19.68;100.00;100639.87;109662;1251;58860;-84
2023/06/13 05:17:12;;;;;;;2.60;1.90;;;;;;;20.33;100.00;100639.69;108533;1251;60480;-85
2023/06/13 05:19:40;;;;;;;4.90;2.20;;;;;;;20.90;100.00;100642.75;108872;1251;73899;-85
2023/06/13 05:22:07;;;;;;;2.60;2.10;;;;;;;21.44;99.40;100634.84;109406;1251;62349;-84
2023/06/13 05:24:34;;;;;;;3.00;1.80;;;;;;;21.93;96.82;100637.66;109519;1251;71420;-84
2023/06/13 05:27:01;;;;;;;3.80;2.30;;;;;;;22.35;92.11;100630.07;109422;1251;59223;-83
2023/06/13 05:29:30;;;;;;;5.70;2.10;;;;;;;22.66;89.28;100620.55;109255;1251;59107;-84
2023/06/13 05:31:57;;;;;;;2.50;1.70;;;;;;;22.96;88.32;100618.13;109513;1251;72686;-84
2023/06/13 05:34:25;;;;;;;3.10;2.00;;;;;;;23.26;85.52;100613.95;109493;1251;62658;-84
2023/06/13 05:36:53;;;;;;;5.50;2.20;;;;;;;23.42;84.01;100619.67;109397;1251;71388;-84
2023/06/13 05:39:20;;;;;;;2.80;2.50;;;;;;;23.73;83.81;100617.63;109664;1251;58912;-86
2023/06/13 05:41:46;;;;;;;6.00;1.90;;;;;;;24.07;81.21;100613.79;109708;1251;59247;-86
2023/06/13 05:44:13;;;;;;;5.60;2.10;;;;;;;24.32;77.89;100612.96;109583;1251;72761;-86
2023/06/13 05:48:54;;;;;;;3.70;2.00;;;;;;;24.39;74.27;100611.63;105832;1292;599892;-83
2023/06/13 05:51:22;;;;;;;2.70;2.10;;;;;;;24.54;73.60;100615.49;108135;1267;60832;-85
2023/06/13 05:53:50;;;;;;;3.10;2.00;;;;;;;24.82;71.75;100619.62;107713;1266;59241;-85
2023/06/13 05:56:18;;;;;;;3.10;2.30;;;;;;;25.10;68.59;100614.38;105582;1266;74077;-90
2023/06/13 05:58:45;;;;;;;5.10;2.80;;;;;;;25.37;66.79;100607.00;106355;1256;63949;-85
2023/06/13 06:01:13;;;;;;;5.90;2.20;;;;;;;25.41;63.45;100612.04;105832;1260;71448;-84
2023/06/13 06:03:41;;;;;;;5.20;2.00;;;;;;;25.38;63.27;100614.54;105571;1254;536440;-85
2023/06/13 06:06:09;;;;;;;2.90;2.50;;;;;;;25.52;61.84;100612.82;106096;1253;60038;-86
2023/06/13 06:08:36;;;;;;;2.90;1.80;;;;;;;25.69;61.30;100609.81;106038;1260;72206;-85
2023/06/13 06:11:04;;;;;;;2.30;2.10;;;;;;;25.74;61.78;100610.85;105832;1254;64353;-86
2023/06/13 06:13:31;;;;;;;2.90;2.40;;;;;;;25.86;62.53;100605.19;105835;1260;72618;-90
2023/06/13 06:15:59;;;;;;;5.70;2.10;;;;;;;26.02;59.69;100597.71;105896;1260;59741;-90
2023/06/13 06:18:29;;;;;;;6.10;2.20;;;;;;;26.09;59.43;100595.20;106022;1256;59528;-86
2023/06/13 06:20:58;;;;;;;3.20;2.30;;;;;;;26.10;58.22;100592.27;106198;1253;73297;-86
2023/06/13 06:23:25;;;;;;;4.90;2.40;;;;;;;26.11;58.50;100587.73;105905;1257;63741;-86
2023/06/13 06:25:53;;;;;;;5.50;2.60;;;;;;;26.29;57.90;100586.13;105952;1257;72624;-89
2023/06/13 06:28:21;;;;;;;4.30;2.00;;;;;;;26.53;54.83;100580.75;106398;1252;59627;-90
2023/06/13 06:30:49;;;;;;;4.30;2.50;;;;;;;26.56;53.27;100577.79;105950;1252;60215;-85
2023/06/13 06:33:16;;;;;;;2.10;1.70;;;;;;;26.52;53.47;100572.20;106024;1258;72266;-84
2023/06/13 06:35:45;;;;;;;2.10;1.90;;;;;;;26.50;54.79;100569.88;106044;1254;63688;-89
2023/06/13 06:38:12;;;;;;;1.90;1.70;;;;;;;26.55;53.63;100568.39;105871;1259;72541;-87
2023/06/13 06:40:40;;;;;;;3.10;1.90;;;;;;;26.69;53.63;100567.33;105988;1255;59676;-86
2023/06/13 06:43:08;;;;;;;3.50;1.90;;;;;;;26.95;55.27;100562.27;105942;1254;60232;-85
2023/06/13 06:45:35;;;;;;;2.10;1.80;;;;;;;27.13;53.99;100561.50;105915;1256;73055;-86
2023/06/13 06:48:03;;;;;;;3.30;2.40;;;;;;;27.29;50.95;100564.30;106026;1256;63610;-87
2023/06/13 06:50:33;;;;;;;3.40;2.20;;;;;;;27.23;50.45;100563.09;105994;1257;73371;-86
2023/06/13 06:53:01;;;;;;;3.20;1.90;;;;;;;27.28;51.10;100567.53;105902;1257;59653;-87
2023/06/13 06:55:30;;;;;;;2.30;1.60;;;;;;;27.39;52.67;100565.45;105811;1257;59698;-87
2023/06/13 06:57:58;;;;;;;3.80;1.80;;;;;;;27.70;52.26;100567.14;105839;1257;73092;-85
2023/06/13 07:00:25;;;;;;;2.50;2.30;;;;;;;27.99;51.11;100567.89;105968;1257;63641;-87
2023/06/13 07:02:55;;;;;;;2.20;1.90;;;;;;;28.16;47.40;100566.67;105905;1254;71247;-84
2023/06/13 07:05:23;;;;;;;3.60;2.00;;;;;;;28.14;47.50;100568.02;105801;1254;59615;-87
2023/06/13 07:07:51;;;;;;;3.90;1.80;;;;;;;28.12;48.08;100570.80;106068;1254;60596;-84
2023/06/13 07:10:18;;;;;;;5.90;2.00;;;;;;;28.31;47.76;100574.76;105976;1257;73087;-84
2023/06/13 07:12:46;;;;;;;3.10;2.00;;;;;;;28.58;46.78;100575.55;108234;1253;62566;-82
2023/06/13 07:15:14;;;;;;;3.20;1.90;;;;;;;28.84;45.48;100575.17;107758;1255;74487;-84
2023/06/13 07:17:44;;;;;;;1.70;1.50;;;;;;;28.86;44.89;100574.45;106584;1255;59986;-87
2023/06/13 07:20:12;;;;;;;2.90;1.60;;;;;;;28.72;44.45;100573.19;106015;1257;59810;-85
2023/06/13 07:22:40;;;;;;;5.00;1.70;;;;;;;28.59;45.82;100571.80;105998;1252;73186;-88
2023/06/13 07:25:08;;;;;;;3.10;2.30;;;;;;;28.76;46.38;100572.67;105935;1258;62643;-84
2023/06/13 07:27:36;;;;;;;3.90;2.90;;;;;;;29.10;44.86;100569.19;109658;1253;73172;-85
2023/06/13 07:30:04;;;;;;;3.00;1.80;;;;;;;29.37;45.30;100571.05;109634;1254;60095;-85
2023/06/13 07:32:31;;;;;;;3.30;2.40;;;;;;;29.59;44.78;100576.02;109673;1253;60305;-86
2023/06/13 07:34:59;;;;;;;3.70;1.90;;;;;;;29.84;43.28;100568.08;109650;1252;75311;-88
2023/06/13 07:37:33;;;;;;;2.70;1.50;;;;;;;30.10;42.57;100565.20;109739;1254;63963;-86
2023/06/13 07:40:05;;;;;;;5.50;1.90;;;;;;;30.20;42.08;100566.38;109711;1253;72750;-87
2023/06/13 07:42:34;;;;;;;7.00;1.90;;;;;;;30.36;41.52;100568.38;109719;1254;60031;-85
2023/06/13 07:45:02;;;;;;;2.50;1.90;;;;;;;30.49;41.50;100560.33;109800;1253;58881;-86
2023/06/13 07:47:30;;;;;;;2.40;1.80;;;;;;;30.44;40.48;100562.54;109800;1253;73151;-87
2023/06/13 07:49:58;;;;;;;3.50;1.90;;;;;;;30.27;41.45;100564.54;109698;1252;64650;-84
2023/06/13 07:55:15;;;;;;;1.30;1.20;;;;;;;30.50;41.53;100567.60;106738;1285;599381;-84
2023/06/13 07:57:43;;;;;;;3.50;1.50;;;;;;;30.62;41.05;100565.73;108625;1266;59171;-84
2023/06/13 08:00:27;;;;;;;5.00;1.60;;;;;;;30.69;41.47;100563.81;108932;1260;59363;-86
2023/06/13 08:02:55;;;;;;;4.50;2.00;;;;;;;30.73;41.13;100564.42;108987;1258;71025;-85
2023/06/13 08:05:23;;;;;;;6.10;4.10;;;;;;;30.72;40.67;100565.60;109084;1258;62655;-84
2023/06/13 08:07:51;;;;;;;4.20;2.20;;;;;;;30.69;41.01;100568.55;108471;1256;615231;-85
2023/06/13 08:10:19;;;;;;;5.40;2.40;;;;;;;30.77;41.81;100561.67;108731;1256;59116;-84
2023/06/13 08:12:47;;;;;;;2.70;1.40;;;;;;;30.79;41.06;100566.61;108820;1256;59955;-85
2023/06/13 08:15:17;;;;;;;2.90;1.50;;;;;;;30.92;40.25;100567.92;109180;1259;70713;-83
2023/06/13 08:17:45;;;;;;;4.00;1.60;;;;;;;31.10;39.66;100563.70;109234;1254;62262;-84
2023/06/13 08:20:13;;;;;;;2.50;1.50;;;;;;;31.24;40.32;100567.83;109180;1254;71749;-85
2023/06/13 08:22:41;;;;;;;4.90;2.20;;;;;;;31.20;39.63;100565.65;109340;1256;58776;-84
2023/06/13 08:25:10;;;;;;;4.30;1.50;;;;;;;31.13;39.82;100567.79;109151;1254;58834;-84
2023/06/13 08:27:39;;;;;;;4.80;1.20;;;;;;;31.18;40.46;100570.63;109125;1254;71730;-84
2023/06/13 08:30:09;;;;;;;2.70;1.80;;;;;;;31.25;40.33;100571.36;108766;1254;62847;-84
2023/06/13 08:32:39;;;;;;;3.50;1.80;;;;;;;31.32;39.46;100571.89;108561;1254;71526;-85
2023/06/13 08:35:08;;;;;;;4.10;1.80;;;;;;;31.43;37.95;100568.88;108972;1253;58743;-84
2023/06/13 08:37:35;;;;;;;3.10;1.50;;;;;;;31.50;38.45;100566.40;109584;1254;59000;-85
2023/06/13 08:40:05;;;;;;;3.00;1.60;;;;;;;31.59;38.05;100570.17;109430;1254;71854;-84
2023/06/13 08:42:39;;;;;;;7.00;2.20;;;;;;;31.71;38.34;100568.66;109216;1257;62925;-84
2023/06/13 08:45:07;;;;;;;1.80;1.50;;;;;;;31.89;39.17;100569.59;107772;1257;71853;-85
2023/06/13 08:47:35;;;;;;;3.10;2.20;;;;;;;32.05;39.06;100569.80;107625;1257;59648;-85
2023/06/13 08:50:08;;;;;;;3.90;1.80;;;;;;;32.11;38.02;100566.14;105675;1256;60122;-86
2023/06/13 08:52:43;;;;;;;3.10;2.20;;;;;;;32.10;37.24;100572.58;105976;1257;73113;-85
2023/06/13 08:55:13;;;;;;;4.40;1.70;;;;;;;32.17;36.74;100567.95;105432;1256;62975;-84
2023/06/13 08:58:01;;;;;;;6.80;3.70;;;;;;;32.26;37.19;100560.56;105697;1257;73593;-88
2023/06/13 09:00:28;;;;;;;4.70;2.00;;;;;;;32.28;37.22;100563.70;105474;1257;59807;-86
2023/06/13 09:02:56;;;;;;;3.30;2.10;;;;;;;32.35;36.75;100559.45;105435;1260;59612;-86
2023/06/13 09:05:24;;;;;;;4.70;2.20;;;;;;;32.41;36.43;100564.27;105512;1261;73004;-85
2023/06/13 09:07:52;;;;;;;3.70;1.60;;;;;;;32.46;36.34;100554.31;105366;1256;63174;-88
2023/06/13 09:10:34;;;;;;;2.30;1.90;;;;;;;32.35;35.57;100547.36;105659;1257;72512;-85
2023/06/13 09:13:02;;;;;;;4.60;2.10;;;;;;;32.14;35.70;100547.85;105601;1262;60153;-84
2023/06/13 09:15:29;;;;;;;3.10;1.60;;;;;;;31.98;36.23;100549.75;105539;1261;59759;-85
2023/06/13 09:17:57;;;;;;;2.30;1.50;;;;;;;31.90;36.93;100547.33;105544;1262;73058;-89
2023/06/13 09:20:27;;;;;;;3.00;1.40;;;;;;;31.73;36.96;100550.23;105529;1260;63966;-88
2023/06/13 09:22:55;;;;;;;2.00;1.60;;;;;;;31.62;37.94;100550.16;105487;1257;71773;-88
2023/06/13 09:25:23;;;;;;;2.50;1.70;;;;;;;31.66;37.65;100549.09;105433;1257;59669;-88
2023/06/13 09:27:51;;;;;;;1.80;1.70;;;;;;;31.64;38.07;100546.75;105533;1262;59650;-88
2023/06/13 09:30:19;;;;;;;7.40;2.10;;;;;;;31.60;38.59;100547.64;106005;1260;73567;-86
2023/06/13 09:32:51;;;;;;;4.90;2.00;;;;;;;31.63;38.97;100546.73;105586;1257;63979;-86
2023/06/13 09:35:19;;;;;;;5.70;1.80;;;;;;;31.73;37.55;100544.37;105604;1260;71485;-83
2023/06/13 09:38:01;;;;;;;3.80;2.30;;;;;;;31.83;37.15;100541.02;105715;1257;59956;-87
2023/06/13 09:40:29;;;;;;;4.20;1.70;;;;;;;31.90;37.45;100538.65;105816;1257;60108;-85
2023/06/13 09:43:00;;;;;;;2.90;1.90;;;;;;;31.82;37.74;100542.36;105346;1257;73198;-86
2023/06/13 09:45:47;;;;;;;5.30;1.70;;;;;;;31.82;39.34;100536.55;105408;1257;64218;-89
2023/06/13 09:48:15;;;;;;;4.10;1.50;;;;;;;31.91;38.71;100539.54;105613;1257;72818;-87
2023/06/13 09:50:43;;;;;;;2.80;1.70;;;;;;;31.98;38.34;100535.90;106318;1253;60590;-89
2023/06/13 09:53:11;;;;;;;2.60;1.80;;;;;;;31.97;38.86;100538.81;106107;1259;61006;-86
2023/06/13 09:55:40;;;;;;;5.10;2.00;;;;;;;32.01;38.10;100541.31;105989;1253;74116;-86
2023/06/13 09:58:08;;;;;;;4.70;2.10;;;;;;;31.93;38.26;100537.55;105954;1259;64146;-85
2023/06/13 10:00:57;;;;;;;2.60;2.10;;;;;;;31.76;38.83;100541.17;106337;1253;71523;-88
2023/06/13 10:03:27;;;;;;;3.40;1.80;;;;;;;31.59;39.93;100542.78;106225;1254;61481;-86
2023/06/13 10:05:58;;;;;;;3.20;2.00;;;;;;;31.52;39.16;100546.98;105774;1259;59613;-85
2023/06/13 10:08:27;;;;;;;4.50;1.60;;;;;;;31.62;38.67;100547.73;105820;1254;73089;-87
2023/06/13 10:10:54;;;;;;;4.90;2.20;;;;;;;31.72;37.87;100545.70;105732;1258;64623;-85
2023/06/13 10:13:25;;;;;;;2.60;1.60;;;;;;;31.78;38.36;100548.45;105979;1252;72649;-86
2023/06/13 10:15:58;;;;;;;2.60;1.40;;;;;;;31.90;38.32;100547.20;105641;1259;60310;-84
2023/06/13 10:18:30;;;;;;;4.90;1.90;;;;;;;31.98;38.33;100542.00;106147;1254;60038;-86
2023/06/13 10:20:57;;;;;;;3.90;3.30;;;;;;;32.02;37.79;100538.98;105928;1253;73032;-85
2023/06/13 10:23:30;;;;;;;7.00;4.30;;;;;;;31.99;37.93;100542.63;105977;1253;63624;-83
2023/06/13 10:26:00;;;;;;;78.20;69.70;;;;;;;31.86;37.86;100543.26;106335;1256;73677;-85
2023/06/13 10:28:53;;;;;;;7.80;3.10;;;;;;;31.73;38.42;100540.09;106180;1254;60036;-85
2023/06/13 10:31:35;;;;;;;4.30;1.90;;;;;;;31.69;39.05;100536.94;105949;1254;60068;-84
2023/06/13 10:34:26;;;;;;;2.90;2.20;;;;;;;31.39;38.74;100534.90;105876;1258;73633;-84
2023/06/13 10:37:11;;;;;;;3.20;2.50;;;;;;;31.00;38.35;100535.69;106687;1258;63601;-84
2023/06/13 10:39:52;;;;;;;5.80;2.50;;;;;;;30.65;39.62;100533.45;106323;1258;72516;-88
2023/06/13 10:42:44;;;;;;;3.90;2.00;;;;;;;30.53;41.44;100533.67;106035;1257;60081;-83
2023/06/13 10:45:21;;;;;;;3.20;2.00;;;;;;;30.62;41.26;100524.48;105738;1257;60143;-84
2023/06/13 10:47:50;;;;;;;5.20;2.40;;;;;;;30.63;41.24;100521.64;105813;1259;73705;-84
2023/06/13 10:50:20;;;;;;;5.40;1.50;;;;;;;30.58;40.94;100514.34;106050;1254;63769;-86
2023/06/13 10:52:48;;;;;;;5.00;1.80;;;;;;;30.63;40.97;100511.17;106224;1253;72473;-83
2023/06/13 10:55:37;;;;;;;3.60;1.70;;;;;;;30.73;41.17;100507.52;106255;1258;59682;-87
2023/06/13 10:58:12;;;;;;;7.00;3.00;;;;;;;30.81;40.90;100504.59;105988;1254;59576;-89
2023/06/13 11:00:40;;;;;;;4.40;2.10;;;;;;;30.90;41.74;100499.66;105661;1254;73799;-87
2023/06/13 11:03:08;;;;;;;8.10;1.90;;;;;;;30.86;41.12;100497.66;106045;1257;63739;-86
2023/06/13 11:05:48;;;;;;;7.50;2.50;;;;;;;30.76;41.58;100496.29;106425;1253;72638;-84
2023/06/13 11:08:21;;;;;;;2.90;1.40;;;;;;;30.67;42.73;100492.03;106901;1261;59783;-83
2023/06/13 11:10:51;;;;;;;3.30;1.70;;;;;;;30.61;42.83;100490.81;106464;1259;60078;-85
2023/06/13 11:13:23;;;;;;;6.10;1.90;;;;;;;30.42;42.29;100488.51;106994;1253;73037;-83
2023/06/13 11:16:15;;;;;;;2.50;1.50;;;;;;;30.19;43.66;100490.89;106630;1253;63893;-88
2023/06/13 11:18:50;;;;;;;;;;;;;;;30.08;44.11;100487.10;105986;1253;72671;-86
2023/06/13 11:21:18;;;;;;;4.40;1.80;;;;;;;29.84;44.59;100485.63;106464;1258;60122;-85
2023/06/13 11:23:50;;;;;;;7.90;2.80;;;;;;;29.65;45.88;100480.73;106931;1254;59688;-88
2023/06/13 11:26:20;;;;;;;4.20;2.20;;;;;;;29.49;46.99;100485.73;106036;1254;72804;-85
2023/06/13 11:28:50;;;;;;;2.90;1.60;;;;;;;29.33;48.18;100483.65;106213;1253;62826;-89